This is the latest recevied weather packets stored in our database for station/object DG7AA-13. If no packets are shown the sender has not sent any weather packets the latest 1 day(s).
| Time | Temp. | Humidity | Pressure | Rain* | Wind** | Luminosity | Snow |
|---|---|---|---|---|---|---|---|
| 1777983334 | 19.44° C | 69% | - | 0 mm | 0.89 m/s, 332° | - | - |
| 1777982723 | 20° C | 68% | - | 0 mm | 0.89 m/s, 337° | - | - |
| 1777982134 | 19.44° C | 68% | - | 0 mm | 0.45 m/s, 177° | - | - |
| 1777981523 | 18.89° C | 73% | - | 0 mm | 1.34 m/s, 344° | - | - |
| 1777980934 | 18.89° C | 72% | - | 0 mm | 0.45 m/s, 354° | - | - |
| 1777980323 | 18.89° C | 74% | - | 0 mm | 0.89 m/s, 347° | - | - |
| 1777979723 | 18.89° C | 75% | - | 0 mm | 0.89 m/s, 337° | - | - |
| 1777979126 | 19.44° C | 76% | - | 0 mm | 0.45 m/s, 211° | - | - |
| 1777978526 | 18.89° C | 76% | - | 0 mm | 0.45 m/s, 355° | - | - |
| 1777977926 | 18.89° C | 74% | - | 0 mm | 0.45 m/s, 355° | - | - |
| 1777977329 | 19.44° C | 76% | - | 0 mm | 0 m/s | - | - |
| 1777976723 | 18.33° C | 75% | - | 0 mm | 0.45 m/s, 358° | - | - |
| 1777976131 | 18.33° C | 81% | - | 0 mm | 0.45 m/s, 349° | - | - |
| 1777975526 | 17.78° C | 82% | - | 0 mm | 0 m/s | - | - |
| 1777974931 | 17.22° C | 85% | - | 0 mm | 0 m/s | - | - |
| 1777974327 | 17.22° C | 85% | - | 0 mm | 0.45 m/s, 340° | - | - |
| 1777973723 | 17.22° C | 87% | - | 0 mm | 0 m/s | - | - |
| 1777973125 | 16.67° C | 88% | - | 0 mm | 0 m/s | - | - |
| 1777972531 | 16.67° C | 90% | - | 0 mm | 0 m/s | - | - |
| 1777971929 | 15.56° C | 92% | - | 0 mm | 0 m/s | - | - |
| 1777971322 | 15.56° C | 93% | - | 0 mm | 0 m/s | - | - |
| 1777969523 | 14.44° C | 97% | - | 0 mm | 0 m/s | - | - |
| 1777968931 | 14.44° C | 98% | - | 0 mm | 0 m/s | - | - |
| 1777968333 | 14.44° C | 99% | - | 0 mm | 0 m/s | - | - |
| 1777967726 | 13.89° C | 99% | - | 0 mm | 0 m/s | - | - |
* Rain latest hour (hover to see other rain measurements)
** Current wind speed in m/s (hover to see current wind gust speed)